Hovedside
METAR-TAF:

METAR-TAF

Lufthavner :

Kristianstad, Sverige

breddegrad: 55-55N, lengdegrad: 014-05E, høyde over havet: 23 m

Gjeldene værobservasjon

Denne rapporten ble laget for 43 minutter siden, klokken 20:20 UTC
Vind 12 kt fra Øst-sørøst
Temperatur 11°C
Luftfuktighet 54%
Trykk 1016 hPa
Sikt 10 km eller mer

METAR: ESMK 232020Z AUTO 11012KT 9999 NCD 11/02 Q1016

Tid: 23:03 (21:03 UTC)

Varsel

Denne rapporten ble laget for 7 timer og 0 minutter siden, klokken 14:03 UTC
Varsel gyldig fra 23. klokken 15 UTC til 23. klokken 19 UTC
Vind 18 kt fra Øst
Sikt 10 km eller mer
ingen skyer under 1500 m og ingen bygeskyer
Midlertidig
fra 23. klokken 15 UTC til 23. klokken 19 UTC
Vind 23 kt fra Øst med vindkast opp mot 38 kt

TAF: ESMK 231403Z 2315/2319 10018KT CAVOK TEMPO 2315/2319 10023G38KT

Værobservasjoner og værvarsel for over 4000 flyplasser (METAR- og TAF-rapporter).

Tilgjengelige stasjoner er representert av de røde og gule prikkene på kartet.

Hold musepekeren over prikken for å se navnet på stasjonen.

Klikk så for å se værobservasjoner og -varsler.

For å forandre kartet kan du klikke på den grønne knappen med svart kryss for å zoome inn, på den grønne knappen med strek for å zoome ut, eller på de grønne pilene for å se tilstøtende kart.


METAR-TAF: